MMTO/TLC METAR and TAF weather

Enter ICAO airport designator
Station Type Date Time Source
MMTO METAR 2021/04/13 06:48 UTC NOAA

MMTO 130648Z 00000KT 6SM SCT015 11/03 A3032 RMK 8/500 HZY


Station Type Date Time Source
MMTO Decoded METAR 2021/04/13 06:48 UTC NOAA

Toluca / Jose Maria , Mexico (MMTO) 19-21N 099-34W
Apr 13, 2021 - 02:48 AM EDT / 2021.04.13 0648 UTC
Wind: Calm:0
Visibility: 6 mile(s):0
Sky conditions: partly cloudy
Temperature: 51 F (11 C)
Dew Point: 37 F (3 C)
Relative Humidity: 57%
Pressure (altimeter): 30.32 in. Hg (1026 hPa)
ob: MMTO 130648Z 00000KT 6SM SCT015 11/03 A3032 RMK 8/500 HZY
cycle: 7

Station Type Date Time Source
MMTO TAF 2021/04/13 06:37 UTC NOAA

TAF MMTO 130330Z 1306/1412 03005KT 6SM HZ SCT015 TX29/1321Z TN05/1312Z
FM131800 16010KT 6SM HZ SCT015 BKN070
TEMPO 1323/1403 5SM TSRA BKN015CB

Example: see airport list